Terminal Aerodrome Forecast
Issued by NWS

Home | Current Version | Previous Version | Text Only | Print | Product List | Glossary On
Versions: 1 2 3 4 5 6 7 8 9 10 11 12 13 14 15 16 17 18 19
000
FTUS43 KBIS 301731
TAFJMS
TAF
KJMS 301731Z 3018/3118 06009KT P6SM SCT200
     FM302200 11007KT P6SM SCT200
     FM311100 12009KT P6SM BKN100
     FM311500 14010KT P6SM VCSH SCT050 OVC080=

USA.gov is the U.S. government's official web portal to all federal, state and local government web resources and services.